createdAt,value
2023-06-13T00:00:01.554Z,4.30
2023-06-13T00:02:32.378Z,4.70
2023-06-13T00:05:02.145Z,4.60
2023-06-13T00:07:33.139Z,4.47
2023-06-13T00:10:00.553Z,4.65
2023-06-13T00:12:27.732Z,4.53
2023-06-13T00:14:55.928Z,4.35
2023-06-13T00:17:26.348Z,5.13
2023-06-13T00:19:55.441Z,4.55
2023-06-13T00:22:23.385Z,4.65
2023-06-13T00:24:50.393Z,4.68
2023-06-13T00:27:18.077Z,4.85
2023-06-13T00:29:45.241Z,4.80
2023-06-13T00:32:12.233Z,4.55
2023-06-13T00:34:40.001Z,4.68
2023-06-13T00:37:11.079Z,4.43
2023-06-13T00:39:38.357Z,5.03
2023-06-13T00:42:07.533Z,5.03
2023-06-13T00:44:35.603Z,4.88
2023-06-13T00:47:05.148Z,4.57
2023-06-13T00:49:32.510Z,4.63
2023-06-13T00:52:05.843Z,4.80
2023-06-13T00:54:39.281Z,4.60
2023-06-13T00:57:07.601Z,4.97
2023-06-13T00:59:35.158Z,5.38
2023-06-13T01:02:04.852Z,4.57
2023-06-13T01:04:36.921Z,4.72
2023-06-13T01:07:07.181Z,5.00
2023-06-13T01:09:34.871Z,5.47
2023-06-13T01:12:20.241Z,4.93
2023-06-13T01:15:09.748Z,5.80
2023-06-13T01:17:44.911Z,5.18
2023-06-13T01:20:15.701Z,5.28
2023-06-13T01:22:58.430Z,4.93
2023-06-13T01:25:58.488Z,5.25
2023-06-13T01:28:28.017Z,4.88
2023-06-13T01:30:56.471Z,5.50
2023-06-13T01:33:25.135Z,5.50
2023-06-13T01:35:53.042Z,5.80
2023-06-13T01:38:22.719Z,5.53
2023-06-13T01:40:50.418Z,5.40
2023-06-13T01:43:17.509Z,5.07
2023-06-13T01:45:44.645Z,5.18
2023-06-13T01:48:48.804Z,4.88
2023-06-13T01:51:41.507Z,4.68
2023-06-13T01:54:12.489Z,4.85
2023-06-13T01:56:42.838Z,5.15
2023-06-13T01:59:13.045Z,4.75
2023-06-13T02:01:40.647Z,4.65
2023-06-13T02:04:08.028Z,4.63
2023-06-13T02:06:35.069Z,4.93
2023-06-13T02:09:03.058Z,5.30
2023-06-13T02:11:30.340Z,5.25
2023-06-13T02:13:57.364Z,5.28
2023-06-13T02:16:26.623Z,5.40
2023-06-13T02:18:54.323Z,4.63
2023-06-13T02:21:23.274Z,5.35
2023-06-13T02:23:51.089Z,5.40
2023-06-13T02:26:18.265Z,4.95
2023-06-13T02:28:49.061Z,5.63
2023-06-13T02:31:17.461Z,5.55
2023-06-13T02:33:45.152Z,5.05
2023-06-13T02:36:13.413Z,4.72
2023-06-13T02:38:42.978Z,4.93
2023-06-13T02:41:09.970Z,4.45
2023-06-13T02:43:37.177Z,4.93
2023-06-13T02:46:04.592Z,4.35
2023-06-13T02:48:31.632Z,5.00
2023-06-13T02:50:58.660Z,4.60
2023-06-13T02:53:26.485Z,5.78
2023-06-13T02:55:54.061Z,4.65
2023-06-13T02:58:21.735Z,4.95
2023-06-13T03:00:50.283Z,4.95
2023-06-13T03:03:19.486Z,4.75
2023-06-13T03:05:49.626Z,4.28
2023-06-13T03:08:19.495Z,4.55
2023-06-13T03:10:49.409Z,4.10
2023-06-13T03:13:19.771Z,4.80
2023-06-13T03:15:48.480Z,4.60
2023-06-13T03:18:16.731Z,4.13
2023-06-13T03:20:50.595Z,4.68
2023-06-13T03:23:22.326Z,4.63
2023-06-13T03:25:51.034Z,4.50
2023-06-13T03:28:18.894Z,4.50
2023-06-13T03:30:48.084Z,4.05
2023-06-13T03:33:15.380Z,4.63
2023-06-13T03:35:45.525Z,4.15
2023-06-13T03:38:14.674Z,4.15
2023-06-13T03:40:41.656Z,4.50
2023-06-13T03:43:08.662Z,4.47
2023-06-13T03:45:37.115Z,4.72
2023-06-13T03:48:04.767Z,4.38
2023-06-13T03:50:31.881Z,5.40
2023-06-13T03:53:00.260Z,4.43
2023-06-13T03:55:28.072Z,5.22
2023-06-13T03:57:55.056Z,4.88
2023-06-13T04:00:22.468Z,4.88
2023-06-13T04:02:54.300Z,4.38
2023-06-13T04:05:22.820Z,4.18
2023-06-13T04:07:54.799Z,4.20
2023-06-13T04:10:22.192Z,4.50
2023-06-13T04:12:49.207Z,4.93
2023-06-13T04:15:16.601Z,5.07
2023-06-13T04:17:45.933Z,5.45
2023-06-13T04:20:20.403Z,4.95
2023-06-13T04:22:48.976Z,4.25
2023-06-13T04:25:16.405Z,3.67
2023-06-13T04:27:45.908Z,4.90
2023-06-13T04:30:13.823Z,4.72
2023-06-13T04:32:45.005Z,4.25
2023-06-13T04:35:17.473Z,4.38
2023-06-13T04:37:46.943Z,4.50
2023-06-13T04:40:18.007Z,4.60
2023-06-13T04:42:52.648Z,3.80
2023-06-13T04:45:22.560Z,4.40
2023-06-13T04:47:57.442Z,4.05
2023-06-13T04:50:27.055Z,4.10
2023-06-13T04:52:57.094Z,4.65
2023-06-13T04:55:28.725Z,4.18
2023-06-13T04:57:55.816Z,4.43
2023-06-13T05:00:23.568Z,4.90
2023-06-13T05:02:52.039Z,4.10
2023-06-13T05:05:19.843Z,4.03
2023-06-13T05:07:49.079Z,3.75
2023-06-13T05:10:19.260Z,4.00
2023-06-13T05:12:46.687Z,3.55
2023-06-13T05:15:13.713Z,4.18
2023-06-13T05:17:40.828Z,3.60
2023-06-13T05:20:08.808Z,3.30
2023-06-13T05:22:35.824Z,3.42
2023-06-13T05:25:03.122Z,3.28
2023-06-13T05:27:30.104Z,3.90
2023-06-13T05:29:57.092Z,3.50
2023-06-13T05:32:24.080Z,4.18
2023-06-13T05:34:51.194Z,3.30
2023-06-13T05:37:18.994Z,3.65
2023-06-13T05:39:46.170Z,4.28
2023-06-13T05:42:13.300Z,4.10
2023-06-13T05:44:40.412Z,4.28
2023-06-13T05:47:07.709Z,4.25
2023-06-13T05:49:35.502Z,4.68
2023-06-13T05:52:02.662Z,4.22
2023-06-13T05:54:29.776Z,4.55
2023-06-13T05:56:56.914Z,4.00
2023-06-13T05:59:24.382Z,4.40
2023-06-13T06:01:52.088Z,4.55
2023-06-13T06:04:19.573Z,4.38
2023-06-13T06:06:47.031Z,4.90
2023-06-13T06:09:14.202Z,5.30
2023-06-13T06:11:41.581Z,4.32
2023-06-13T06:14:08.852Z,5.00
2023-06-13T06:16:36.089Z,4.40
2023-06-13T06:19:03.515Z,4.70
2023-06-13T06:21:30.972Z,3.88
2023-06-13T06:23:58.702Z,5.05
2023-06-13T06:26:26.053Z,3.85
2023-06-13T06:28:53.682Z,4.25
2023-06-13T06:31:21.072Z,4.15
2023-06-13T06:33:48.955Z,4.05
2023-06-13T06:36:16.916Z,4.20
2023-06-13T06:38:44.108Z,4.72
2023-06-13T06:41:12.733Z,3.92
2023-06-13T06:43:40.348Z,4.13
2023-06-13T06:46:10.889Z,3.88
2023-06-13T06:48:39.784Z,3.85
2023-06-13T06:51:07.195Z,4.07
2023-06-13T06:53:34.517Z,3.45
2023-06-13T06:56:02.017Z,3.80
2023-06-13T06:58:29.659Z,4.00
2023-06-13T07:00:58.465Z,3.35
2023-06-13T07:03:25.867Z,3.53
2023-06-13T07:05:53.501Z,3.35
2023-06-13T07:08:20.821Z,3.83
2023-06-13T07:10:50.132Z,4.43
2023-06-13T07:13:19.846Z,3.95
2023-06-13T07:15:47.226Z,3.80
2023-06-13T07:18:14.687Z,3.35
2023-06-13T07:20:41.881Z,3.58
2023-06-13T07:23:09.297Z,3.58
2023-06-13T07:25:37.050Z,3.33
2023-06-13T07:28:04.613Z,3.75
2023-06-13T07:30:33.651Z,3.10
2023-06-13T07:33:01.536Z,3.55
2023-06-13T07:35:28.856Z,3.35
2023-06-13T07:37:56.459Z,3.22
2023-06-13T07:40:25.138Z,3.47
2023-06-13T07:42:53.266Z,3.97
2023-06-13T07:45:21.080Z,2.92
2023-06-13T07:47:48.466Z,3.20
2023-06-13T07:50:18.090Z,3.35
2023-06-13T07:52:45.358Z,2.75
2023-06-13T07:55:12.660Z,3.97
2023-06-13T07:57:58.165Z,3.35
2023-06-13T08:00:26.804Z,3.45
2023-06-13T08:02:54.222Z,3.20
2023-06-13T08:05:21.700Z,3.33
2023-06-13T08:07:52.255Z,3.22
2023-06-13T08:10:19.552Z,3.17
2023-06-13T08:12:46.890Z,3.38
2023-06-13T08:15:15.674Z,2.83
2023-06-13T08:17:43.613Z,2.90
2023-06-13T08:20:12.917Z,2.90
2023-06-13T08:22:42.017Z,2.63
2023-06-13T08:25:10.376Z,2.63
2023-06-13T08:27:38.360Z,2.85
2023-06-13T08:30:06.607Z,2.97
2023-06-13T08:32:35.213Z,2.80
2023-06-13T08:35:03.921Z,3.17
2023-06-13T08:37:32.108Z,2.90
2023-06-13T08:39:59.846Z,3.15
2023-06-13T08:42:28.451Z,2.95
2023-06-13T08:44:56.685Z,3.30
2023-06-13T08:49:54.552Z,2.63
2023-06-13T08:52:24.533Z,3.38
2023-06-13T08:55:07.825Z,3.28
2023-06-13T08:57:46.952Z,3.03
2023-06-13T09:00:17.014Z,3.60
2023-06-13T09:02:47.610Z,3.50
2023-06-13T09:05:20.042Z,3.10
2023-06-13T09:07:48.219Z,2.60
2023-06-13T09:10:16.781Z,3.13
2023-06-13T09:12:47.526Z,3.38
2023-06-13T09:15:15.158Z,3.60
2023-06-13T09:17:43.462Z,2.90
2023-06-13T09:20:12.143Z,3.15
2023-06-13T09:22:40.299Z,3.20
2023-06-13T09:25:09.617Z,2.88
2023-06-13T09:27:37.965Z,2.63
2023-06-13T09:30:06.544Z,2.90
2023-06-13T09:32:34.054Z,3.08
2023-06-13T09:35:04.295Z,2.70
2023-06-13T09:37:33.947Z,2.72
2023-06-13T09:40:14.290Z,3.67
2023-06-13T09:45:33.468Z,2.90
2023-06-13T09:48:00.693Z,3.00
2023-06-13T09:50:31.646Z,2.92
2023-06-13T09:53:00.127Z,2.88
2023-06-13T09:55:27.523Z,3.58
2023-06-13T09:58:18.229Z,2.55
2023-06-13T10:00:42.913Z,3.13
2023-06-13T10:03:17.074Z,2.92
2023-06-13T10:05:48.851Z,3.70
2023-06-13T10:08:16.090Z,2.60
2023-06-13T10:10:43.366Z,3.10
2023-06-13T10:13:19.318Z,2.97
2023-06-13T10:15:53.051Z,3.22
2023-06-13T10:18:26.745Z,3.65
2023-06-13T10:20:57.902Z,2.78
2023-06-13T10:23:31.564Z,2.97
2023-06-13T10:26:06.400Z,3.28
2023-06-13T10:29:12.704Z,3.03
2023-06-13T10:32:13.593Z,3.53
2023-06-13T10:35:13.580Z,3.35
2023-06-13T10:38:35.458Z,2.97
2023-06-13T10:41:27.533Z,3.25
2023-06-13T10:44:05.586Z,2.63
2023-06-13T10:46:35.302Z,3.63
2023-06-13T10:49:03.956Z,3.30
2023-06-13T10:51:33.466Z,2.42
2023-06-13T10:54:03.645Z,2.80
2023-06-13T10:56:39.146Z,2.70
2023-06-13T10:59:12.167Z,3.00
2023-06-13T11:01:44.362Z,3.95
2023-06-13T11:04:19.180Z,2.65
2023-06-13T11:06:49.454Z,3.20
2023-06-13T11:09:21.226Z,3.42
2023-06-13T11:11:57.519Z,3.47
2023-06-13T11:14:39.867Z,3.17
2023-06-13T11:17:07.685Z,3.40
2023-06-13T11:19:36.431Z,3.03
2023-06-13T11:22:04.478Z,3.00
2023-06-13T11:24:36.125Z,3.20
2023-06-13T11:27:15.211Z,4.00
2023-06-13T11:29:44.037Z,3.60
2023-06-13T11:32:13.253Z,3.65
2023-06-13T11:34:48.355Z,3.58
2023-06-13T11:37:37.650Z,3.55
2023-06-13T11:40:19.018Z,3.60
2023-06-13T11:42:47.391Z,3.20
2023-06-13T11:45:15.207Z,3.05
2023-06-13T11:47:45.302Z,3.15
2023-06-13T11:50:12.714Z,3.67
2023-06-13T11:52:40.242Z,3.58
2023-06-13T11:55:20.076Z,3.28
2023-06-13T11:57:49.898Z,3.30
2023-06-13T12:00:18.567Z,3.55
2023-06-13T12:02:47.627Z,4.20
2023-06-13T12:05:15.900Z,3.55
2023-06-13T12:07:45.253Z,3.58
2023-06-13T12:10:14.463Z,3.33
2023-06-13T12:12:42.220Z,3.00
2023-06-13T12:15:15.494Z,3.53
2023-06-13T12:18:03.805Z,3.88
2023-06-13T12:20:31.489Z,4.22
2023-06-13T12:23:00.935Z,3.38
2023-06-13T12:25:32.198Z,3.38
2023-06-13T12:28:02.953Z,4.00
2023-06-13T12:30:40.557Z,3.45
2023-06-13T12:33:09.144Z,2.97
2023-06-13T12:35:36.890Z,3.10
2023-06-13T12:38:05.364Z,3.30
2023-06-13T12:40:37.127Z,3.45
2023-06-13T12:43:04.766Z,3.72
2023-06-13T12:45:33.301Z,3.30
2023-06-13T12:48:01.430Z,3.17
2023-06-13T12:50:31.514Z,3.92
2023-06-13T12:53:24.514Z,3.40
2023-06-13T12:55:53.588Z,3.08
2023-06-13T12:58:35.903Z,4.45
2023-06-13T13:01:07.334Z,3.47
2023-06-13T13:03:37.362Z,3.20
2023-06-13T13:06:05.103Z,3.50
2023-06-13T13:08:33.111Z,3.20
2023-06-13T13:11:00.726Z,3.13
2023-06-13T13:13:28.334Z,3.83
2023-06-13T13:15:55.885Z,3.22
2023-06-13T13:18:23.537Z,3.55
2023-06-13T13:20:50.956Z,3.30
2023-06-13T13:23:18.323Z,3.25
2023-06-13T13:25:45.681Z,3.10
2023-06-13T13:28:13.297Z,3.30
2023-06-13T13:30:56.387Z,3.30
2023-06-13T13:33:29.403Z,2.95
2023-06-13T13:35:57.363Z,3.30
2023-06-13T13:38:24.761Z,3.08
2023-06-13T13:40:52.796Z,3.38
2023-06-13T13:43:20.385Z,2.88
2023-06-13T13:45:48.115Z,3.33
2023-06-13T13:48:16.633Z,3.22
2023-06-13T13:50:44.317Z,3.67
2023-06-13T13:53:15.973Z,3.38
2023-06-13T13:55:43.843Z,3.08
2023-06-13T13:58:11.576Z,3.00
2023-06-13T14:00:39.372Z,3.53
2023-06-13T14:03:06.972Z,2.88
2023-06-13T14:05:34.623Z,3.25
2023-06-13T14:08:03.321Z,3.38
2023-06-13T14:10:31.047Z,3.33
2023-06-13T14:12:58.627Z,3.08
2023-06-13T14:15:26.119Z,3.58
2023-06-13T14:17:53.720Z,2.92
2023-06-13T14:20:21.831Z,3.63
2023-06-13T14:22:49.505Z,3.10
2023-06-13T14:25:17.248Z,3.17
2023-06-13T14:27:44.579Z,2.85
2023-06-13T14:30:17.757Z,2.97
2023-06-13T14:32:46.118Z,3.53
2023-06-13T14:35:14.281Z,3.17
2023-06-13T14:37:42.905Z,3.33
2023-06-13T14:40:10.949Z,3.25
2023-06-13T14:42:38.498Z,3.30
2023-06-13T14:45:06.842Z,2.88
2023-06-13T14:47:36.152Z,2.95
2023-06-13T14:50:05.136Z,4.22
2023-06-13T14:52:33.109Z,4.32
2023-06-13T14:55:00.690Z,3.05
2023-06-13T14:57:28.412Z,3.33
2023-06-13T14:59:56.284Z,2.88
2023-06-13T15:02:23.928Z,3.00
2023-06-13T15:04:51.525Z,3.75
2023-06-13T15:07:19.228Z,4.32
2023-06-13T15:09:46.531Z,3.17
2023-06-13T15:12:14.115Z,3.10
2023-06-13T15:14:42.146Z,3.38
2023-06-13T15:17:09.793Z,3.00
2023-06-13T15:19:37.461Z,3.00
2023-06-13T15:22:05.204Z,2.92
2023-06-13T15:24:34.152Z,3.20
2023-06-13T15:27:01.781Z,3.00
2023-06-13T15:29:29.398Z,3.03
2023-06-13T15:31:58.781Z,3.78
2023-06-13T15:34:31.605Z,2.92
2023-06-13T15:37:02.137Z,3.10
2023-06-13T15:39:29.883Z,3.20
2023-06-13T15:41:57.349Z,3.22
2023-06-13T15:44:24.698Z,3.33
2023-06-13T15:46:52.661Z,2.70
2023-06-13T15:49:20.143Z,3.03
2023-06-13T15:51:47.794Z,2.80
2023-06-13T15:54:15.158Z,2.85
2023-06-13T15:56:42.525Z,3.33
2023-06-13T15:59:09.574Z,2.92
2023-06-13T16:01:39.014Z,2.72
2023-06-13T16:04:08.278Z,2.70
2023-06-13T16:06:36.021Z,3.10
2023-06-13T16:09:04.659Z,3.10
2023-06-13T16:11:33.247Z,3.25
2023-06-13T16:14:05.845Z,3.35
2023-06-13T16:16:33.710Z,3.08
2023-06-13T16:19:01.704Z,3.08
2023-06-13T16:21:29.612Z,3.38
2023-06-13T16:23:57.532Z,3.17
2023-06-13T16:26:25.364Z,2.92
2023-06-13T16:28:53.036Z,2.90
2023-06-13T16:31:20.774Z,3.47
2023-06-13T16:33:48.192Z,2.72
2023-06-13T16:36:16.121Z,2.83
2023-06-13T16:38:43.374Z,2.95
2023-06-13T16:41:10.936Z,2.95
2023-06-13T16:43:38.763Z,3.40
2023-06-13T16:46:06.226Z,2.70
2023-06-13T16:48:33.702Z,2.90
2023-06-13T16:51:01.107Z,3.25
2023-06-13T16:53:29.216Z,2.53
2023-06-13T16:55:56.916Z,3.10
2023-06-13T16:58:24.408Z,3.28
2023-06-13T17:00:53.288Z,3.33
2023-06-13T17:03:21.740Z,3.47
2023-06-13T17:05:49.116Z,2.95
2023-06-13T17:08:17.219Z,2.70
2023-06-13T17:10:44.502Z,3.42
2023-06-13T17:13:12.106Z,2.70
2023-06-13T17:15:39.878Z,2.72
2023-06-13T17:18:07.329Z,3.40
2023-06-13T17:20:35.658Z,2.67
2023-06-13T17:23:03.625Z,3.95
2023-06-13T17:25:30.944Z,3.60
2023-06-13T17:27:58.173Z,3.25
2023-06-13T17:30:25.400Z,3.40
2023-06-13T17:32:54.466Z,3.20
2023-06-13T17:35:22.100Z,3.42
2023-06-13T17:38:04.142Z,3.60
2023-06-13T17:40:31.574Z,3.03
2023-06-13T17:42:58.993Z,4.22
2023-06-13T17:45:26.581Z,2.60
2023-06-13T17:47:54.081Z,3.03
2023-06-13T17:50:22.615Z,3.10
2023-06-13T17:52:50.048Z,3.15
2023-06-13T17:55:18.377Z,5.03
2023-06-13T17:57:46.108Z,4.53
2023-06-13T18:00:14.072Z,6.78
2023-06-13T18:02:41.774Z,5.13
2023-06-13T18:05:09.356Z,3.78
2023-06-13T18:07:37.156Z,3.42
2023-06-13T18:10:04.624Z,3.13
2023-06-13T18:12:32.549Z,3.33
2023-06-13T18:15:00.159Z,3.08
2023-06-13T18:17:27.580Z,3.72
2023-06-13T18:19:54.998Z,2.95
2023-06-13T18:22:22.317Z,3.33
2023-06-13T18:24:49.707Z,3.00
2023-06-13T18:27:18.033Z,2.67
2023-06-13T18:29:45.761Z,3.10
2023-06-13T18:32:13.494Z,3.30
2023-06-13T18:34:41.369Z,3.42
2023-06-13T18:37:08.698Z,3.72
2023-06-13T18:39:36.580Z,5.60
2023-06-13T18:42:04.296Z,3.72
2023-06-13T18:44:31.989Z,4.63
2023-06-13T18:46:59.504Z,3.88
2023-06-13T18:49:27.887Z,4.50
2023-06-13T18:51:55.677Z,3.83
2023-06-13T18:54:23.227Z,4.40
2023-06-13T18:56:50.598Z,4.57
2023-06-13T18:59:19.622Z,3.40
2023-06-13T19:01:50.506Z,3.63
2023-06-13T19:04:18.172Z,3.22
2023-06-13T19:06:45.734Z,3.60
2023-06-13T19:09:13.256Z,3.85
2023-06-13T19:11:40.798Z,4.32
2023-06-13T19:14:08.045Z,3.58
2023-06-13T19:16:35.125Z,3.05
2023-06-13T19:19:02.430Z,3.47
2023-06-13T19:21:29.768Z,2.42
2023-06-13T19:23:57.349Z,2.85
2023-06-13T19:26:26.609Z,2.67
2023-06-13T19:28:53.860Z,1.60
2023-06-13T19:31:22.720Z,1.95
2023-06-13T19:33:50.287Z,1.85
2023-06-13T19:36:18.951Z,3.28
2023-06-13T19:38:46.451Z,2.20
2023-06-13T19:41:13.790Z,1.77
2023-06-13T19:43:41.247Z,2.20
2023-06-13T19:46:08.845Z,2.25
2023-06-13T19:48:36.490Z,2.13
2023-06-13T19:51:17.368Z,1.83
2023-06-13T19:53:46.573Z,3.00
2023-06-13T19:56:13.779Z,1.67
2023-06-13T19:58:41.329Z,2.03
2023-06-13T20:01:08.537Z,2.10
2023-06-13T20:03:35.661Z,1.60
2023-06-13T20:06:05.652Z,1.88
2023-06-13T20:08:33.281Z,1.67
2023-06-13T20:11:00.367Z,2.08
2023-06-13T20:13:27.364Z,2.65
2023-06-13T20:15:54.381Z,2.22
2023-06-13T20:18:24.401Z,2.00
2023-06-13T20:20:52.235Z,1.80
2023-06-13T20:23:19.233Z,2.08
2023-06-13T20:25:46.653Z,1.80
2023-06-13T20:28:16.627Z,1.50
2023-06-13T20:30:44.623Z,1.80
2023-06-13T20:33:12.075Z,1.92
2023-06-13T20:35:39.156Z,1.60
2023-06-13T20:38:06.229Z,2.08
2023-06-13T20:40:33.359Z,1.73
2023-06-13T20:43:00.373Z,1.98
2023-06-13T20:45:28.305Z,1.50
2023-06-13T20:47:58.455Z,1.75
2023-06-13T20:50:32.059Z,1.80
2023-06-13T20:52:59.436Z,2.08
2023-06-13T20:55:29.517Z,2.65
2023-06-13T20:57:56.439Z,1.92
2023-06-13T21:00:24.329Z,1.80
2023-06-13T21:02:54.245Z,1.90
2023-06-13T21:05:26.003Z,1.90
2023-06-13T21:07:54.104Z,2.13
2023-06-13T21:10:22.853Z,2.20
2023-06-13T21:12:50.016Z,2.15
2023-06-13T21:15:22.777Z,1.88
2023-06-13T21:17:52.501Z,2.88
2023-06-13T21:20:20.949Z,2.35
2023-06-13T21:22:48.574Z,1.95
2023-06-13T21:25:19.486Z,1.90
2023-06-13T21:27:46.951Z,1.63
2023-06-13T21:30:15.875Z,2.03
2023-06-13T21:32:46.099Z,1.58
2023-06-13T21:35:13.686Z,1.88
2023-06-13T21:37:40.959Z,1.92
2023-06-13T21:40:12.070Z,2.00
2023-06-13T21:42:39.232Z,1.95
2023-06-13T21:45:07.790Z,2.08
2023-06-13T21:47:35.931Z,1.90
2023-06-13T21:50:05.936Z,2.65
2023-06-13T21:52:33.268Z,2.00
2023-06-13T21:55:07.258Z,2.83
2023-06-13T21:57:34.426Z,2.08
2023-06-13T22:00:01.434Z,1.80
2023-06-13T22:02:28.517Z,1.67
2023-06-13T22:04:55.868Z,2.33
2023-06-13T22:07:29.597Z,2.15
2023-06-13T22:09:57.249Z,1.63
2023-06-13T22:12:30.854Z,1.88
2023-06-13T22:14:58.000Z,3.65
2023-06-13T22:17:29.636Z,1.90
2023-06-13T22:20:00.948Z,2.00
2023-06-13T22:22:30.793Z,2.58
2023-06-13T22:24:59.907Z,2.00
2023-06-13T22:27:28.679Z,2.15
2023-06-13T22:29:57.004Z,2.60
2023-06-13T22:32:24.121Z,2.28
2023-06-13T22:34:51.118Z,1.95
2023-06-13T22:37:18.649Z,2.45
2023-06-13T22:39:46.144Z,2.15
2023-06-13T22:42:13.480Z,2.45
2023-06-13T22:44:40.472Z,1.98
2023-06-13T22:47:07.771Z,1.90
2023-06-13T22:49:35.037Z,1.92
2023-06-13T22:52:03.573Z,2.20
2023-06-13T22:54:30.609Z,1.90
2023-06-13T22:56:57.757Z,2.03
2023-06-13T22:59:25.153Z,2.08
2023-06-13T23:01:52.370Z,2.13
2023-06-13T23:04:19.414Z,2.08
2023-06-13T23:06:48.806Z,2.03
2023-06-13T23:09:15.874Z,2.08
2023-06-13T23:11:42.903Z,2.33
2023-06-13T23:14:09.885Z,1.83
2023-06-13T23:16:36.991Z,2.13
2023-06-13T23:19:05.805Z,2.05
2023-06-13T23:21:33.615Z,2.17
2023-06-13T23:24:00.796Z,2.00
2023-06-13T23:26:31.597Z,2.30
2023-06-13T23:28:58.982Z,2.17
2023-06-13T23:31:26.134Z,2.30
2023-06-13T23:33:53.107Z,2.25
2023-06-13T23:36:20.123Z,2.10
2023-06-13T23:38:49.868Z,2.17
2023-06-13T23:41:17.498Z,2.10
2023-06-13T23:43:44.439Z,2.33
2023-06-13T23:46:12.682Z,2.20
2023-06-13T23:48:39.695Z,2.47
2023-06-13T23:51:08.283Z,2.42
2023-06-13T23:53:35.288Z,2.05
2023-06-13T23:56:02.284Z,1.88
2023-06-13T23:58:29.342Z,2.05
